Sst Orleans — CFN5087 — position and weather

sailwx.info

Track history (hours):
 
Tides and Currents Weather Stations Pressure Air Temp Water Temp Dewpoint Dewpoint Depression Visibility Wind Speed Wind Dir Waves Ship Positions

Sst Orleans

Last reported at 2017-Jun-26 18:30 UTC. Time now 2017-Jun-26 18:55 UTC.
Position N 49°17' W 123°04'.

Length 29 m; draft 5.1 m.

Type: . MMSI: 316012721.

Date/timePositionNaut miles runAvg speedWind from/ knotsBaromVisibWave heightAir tempDewpointWater temp
2017-Jun-26 18:30N 49°17' W 123°04'0 0.0
2017-Jun-26 18:00N 49°17' W 123°04'0 0.0
2017-Jun-26 17:30N 49°17' W 123°04'0 0.0
2017-Jun-26 17:00N 49°17' W 123°04'0 0.0
2017-Jun-26 16:30N 49°17' W 123°04'0 0.0
2017-Jun-26 16:00N 49°17' W 123°04'0 0.0
2017-Jun-26 15:30N 49°17' W 123°04'2 5.0
2017-Jun-26 15:01N 49°18' W 123°07'0 0.2
2017-Jun-26 14:00N 49°18' W 123°07'0 0.0
2017-Jun-26 13:30N 49°18' W 123°07'0 0.0
2017-Jun-26 13:00N 49°18' W 123°07'0 0.0
2017-Jun-26 12:30N 49°18' W 123°07'0 0.0
2017-Jun-26 12:00N 49°18' W 123°07'0 0.0
2017-Jun-26 11:30N 49°18' W 123°07'2 4.6
2017-Jun-26 11:00N 49°18' W 123°04'0 0.2
2017-Jun-26 10:30N 49°17' W 123°04'0 0.0
2017-Jun-26 10:00N 49°17' W 123°04'0 0.0
2017-Jun-26 09:30N 49°17' W 123°04'0 0.0
2017-Jun-26 09:00N 49°17' W 123°04'0 0.0
2017-Jun-26 08:30N 49°17' W 123°04'0 0.0
2017-Jun-26 08:00N 49°17' W 123°04'0 0.0
2017-Jun-26 07:30N 49°17' W 123°04'0 0.0
2017-Jun-26 07:00N 49°17' W 123°04'0 0.0
2017-Jun-26 06:30N 49°17' W 123°04'0 0.0
2017-Jun-26 06:00N 49°17' W 123°04'0 0.0
2017-Jun-26 05:30N 49°17' W 123°04'2 4.1
2017-Jun-26 05:00N 49°18' W 123°06'611.0
2017-Jun-26 04:30N 49°18' W 123°15'611.3
2017-Jun-26 04:00N 49°13' W 123°19'712.3
2017-Jun-26 03:28N 49°06' W 123°20'612.2
2017-Jun-26 03:00N 49°01' W 123°20'910.2
2017-Jun-26 02:07N 48°52' W 123°21'111.5
2017-Jun-26 01:59N 48°50' W 123°21'612.4
2017-Jun-26 01:30N 48°45' W 123°18'713.3
2017-Jun-26 01:01N 48°38' W 123°15'612.8
2017-Jun-26 00:30N 48°32' W 123°13'510.6
2017-Jun-26 00:00N 48°26' W 123°13'713.1
2017-Jun-25 23:30N 48°22' W 123°20'611.8
2017-Jun-25 23:00N 48°19' W 123°28'4 8.3
2017-Jun-25 22:30N 48°22' W 123°24'4 7.0
2017-Jun-25 22:00N 48°23' W 123°19'3 5.8
2017-Jun-25 21:31N 48°24' W 123°15'2 4.4
2017-Jun-25 21:00N 48°25' W 123°12'4 7.7
2017-Jun-25 20:30N 48°29' W 123°12'611.3
2017-Jun-25 20:00N 48°35' W 123°13'511.0
2017-Jun-25 19:30N 48°40' W 123°15'5 9.3
2017-Jun-25 19:00N 48°44' W 123°11'510.5
2017-Jun-25 18:30N 48°46' W 123°03'4 7.7
2017-Jun-25 17:59N 48°50' W 123°02'4 7.7
2017-Jun-25 17:30N 48°52' W 123°06'611.4
2017-Jun-25 17:00N 48°56' W 123°13'612.1
2017-Jun-25 16:29N 49°00' W 123°20'611.8
2017-Jun-25 16:00N 49°05' W 123°24'611.9
2017-Jun-25 15:29N 49°11' W 123°20'611.6
2017-Jun-25 15:00N 49°16' W 123°18'8 7.9
2017-Jun-25 14:00N 49°18' W 123°06'3 6.6
2017-Jun-25 13:30N 49°18' W 123°01'2 3.6
2017-Jun-25 13:00N 49°18' W 122°58'0 0.5
2017-Jun-25 12:30N 49°18' W 122°58'0 0.1
2017-Jun-25 12:00N 49°18' W 122°58'4 7.4
2017-Jun-25 11:30N 49°18' W 123°04'0 0.2
2017-Jun-25 11:00N 49°17' W 123°04'0 0.0
2017-Jun-25 10:30N 49°17' W 123°04'0 0.0
2017-Jun-25 10:00N 49°17' W 123°04'0 0.0
2017-Jun-25 09:31N 49°17' W 123°04'1 2.7
2017-Jun-25 09:00N 49°17' W 123°06'0 0.6
2017-Jun-25 08:31N 49°17' W 123°05'5 9.7
2017-Jun-25 08:00N 49°18' W 122°58'2 4.7
2017-Jun-25 07:29N 49°18' W 122°54'0 0.4
2017-Jun-25 07:00N 49°17' W 122°54'3 6.4
2017-Jun-25 06:29N 49°18' W 122°59'3 6.4
2017-Jun-25 06:00N 49°17' W 123°04'0 0.0
2017-Jun-25 05:30N 49°17' W 123°04'0 0.0
2017-Jun-25 05:00N 49°17' W 123°04'0 0.0
2017-Jun-25 04:30N 49°17' W 123°04'0 0.0
2017-Jun-25 04:00N 49°17' W 123°04'0 0.0
2017-Jun-25 03:30N 49°17' W 123°04'0 0.0
2017-Jun-25 03:00N 49°17' W 123°04'0 0.0
2017-Jun-25 02:30N 49°17' W 123°04'0 0.0
2017-Jun-25 02:00N 49°17' W 123°04'0 0.0
2017-Jun-25 01:30N 49°17' W 123°04'0 0.0
2017-Jun-25 01:00N 49°17' W 123°04'0 0.0
2017-Jun-25 00:30N 49°17' W 123°04'0 0.0
2017-Jun-25 00:00N 49°17' W 123°04'0 0.0
2017-Jun-24 23:30N 49°17' W 123°04'0 0.0
2017-Jun-24 23:00N 49°17' W 123°04'0 0.0
2017-Jun-24 22:30N 49°17' W 123°04'0 0.0
2017-Jun-24 22:00N 49°17' W 123°04'0 0.0
2017-Jun-24 21:30N 49°17' W 123°04'0 0.0
2017-Jun-24 21:00N 49°17' W 123°04'0 0.0
2017-Jun-24 20:30N 49°17' W 123°04'0 0.0
2017-Jun-24 20:00N 49°17' W 123°04'0 0.0
2017-Jun-24 19:30N 49°17' W 123°04'0 0.0
2017-Jun-24 19:00N 49°17' W 123°04'0 0.0
2017-Jun-24 18:30N 49°17' W 123°04'0 0.0
2017-Jun-24 18:00N 49°17' W 123°04'0 0.0
2017-Jun-24 17:30N 49°17' W 123°04'0 0.0
2017-Jun-24 17:00N 49°17' W 123°04'0 0.0
2017-Jun-24 16:30N 49°17' W 123°04'0 0.0
2017-Jun-24 16:00N 49°17' W 123°04'0 0.0
2017-Jun-24 15:30N 49°17' W 123°04'0 0.0
2017-Jun-24 15:00N 49°17' W 123°04'0 0.0
2017-Jun-24 14:00N 49°17' W 123°04'0 0.0
2017-Jun-24 13:30N 49°17' W 123°04'0 0.0
2017-Jun-24 13:00N 49°17' W 123°04'0 0.0
2017-Jun-24 12:30N 49°17' W 123°04'0 0.0
2017-Jun-24 12:00N 49°17' W 123°04'0 0.0
2017-Jun-24 11:30N 49°17' W 123°04'0 0.0
2017-Jun-24 11:00N 49°17' W 123°04'0 0.0
2017-Jun-24 10:30N 49°17' W 123°04'0 0.0
2017-Jun-24 10:00N 49°17' W 123°04'0 0.0
2017-Jun-24 09:30N 49°17' W 123°04'0 0.0
2017-Jun-24 09:00N 49°17' W 123°04'0 0.0
2017-Jun-24 08:30N 49°17' W 123°04'0 0.0
2017-Jun-24 08:00N 49°17' W 123°04'0 0.0
2017-Jun-24 07:30N 49°17' W 123°04'0 0.0
2017-Jun-24 07:00N 49°17' W 123°04'0 0.0
2017-Jun-24 06:30N 49°17' W 123°04'0 0.0
2017-Jun-24 06:00N 49°17' W 123°04'0 0.0
2017-Jun-24 05:30N 49°17' W 123°04'0 0.0
2017-Jun-24 05:00N 49°17' W 123°04'0 0.0
2017-Jun-24 04:30N 49°17' W 123°04'0 0.0
2017-Jun-24 04:00N 49°17' W 123°04'0 0.0
2017-Jun-24 03:30N 49°17' W 123°04'0 0.0
2017-Jun-24 03:00N 49°17' W 123°04'0 0.0
2017-Jun-24 02:30N 49°17' W 123°04'0 0.0
2017-Jun-24 02:00N 49°17' W 123°04'0 0.0
2017-Jun-24 01:30N 49°17' W 123°04'0 0.0
2017-Jun-24 01:00N 49°17' W 123°04'0 0.0
2017-Jun-24 00:30N 49°17' W 123°04'0 0.0
2017-Jun-24 00:00N 49°17' W 123°04'0 0.0
2017-Jun-23 23:30N 49°17' W 123°04'0 0.0
2017-Jun-23 23:00N 49°17' W 123°04'0 0.0
2017-Jun-23 22:30N 49°17' W 123°04'0 0.0
2017-Jun-23 22:00N 49°17' W 123°04'0 0.0
2017-Jun-23 21:30N 49°17' W 123°04'0 0.0
2017-Jun-23 21:00N 49°17' W 123°04'0 0.0
2017-Jun-23 20:30N 49°17' W 123°04'0 0.0
2017-Jun-23 20:00N 49°17' W 123°04'0 0.0
2017-Jun-23 19:30N 49°17' W 123°04'0 0.0
2017-Jun-23 19:00N 49°17' W 123°04'0 0.0
2017-Jun-23 18:30N 49°17' W 123°04'0 0.0
2017-Jun-23 18:00N 49°17' W 123°04'0 0.0
2017-Jun-23 17:30N 49°17' W 123°04'0 0.0
2017-Jun-23 17:00N 49°17' W 123°04'0 0.0
2017-Jun-23 16:30N 49°17' W 123°04'0 0.0
2017-Jun-23 16:00N 49°17' W 123°04'0 0.0
2017-Jun-23 15:30N 49°17' W 123°04'0 0.0
2017-Jun-23 15:00N 49°17' W 123°04'0 0.0
2017-Jun-23 14:00N 49°17' W 123°04'0 0.0
2017-Jun-23 13:30N 49°17' W 123°04'1 2.3
2017-Jun-23 13:00N 49°18' W 123°02'0 0.0
2017-Jun-23 12:30N 49°18' W 123°02'1 2.0
2017-Jun-23 12:00N 49°18' W 123°03'1 1.0
2017-Jun-23 11:30N 49°17' W 123°04'0 0.0
2017-Jun-23 11:00N 49°17' W 123°04'0 0.0
2017-Jun-23 10:30N 49°17' W 123°04'0 0.0
2017-Jun-23 10:00N 49°17' W 123°04'0 0.0
2017-Jun-23 09:30N 49°17' W 123°04'0 0.0
2017-Jun-23 09:00N 49°17' W 123°04'0 0.0
2017-Jun-23 08:30N 49°17' W 123°04'0 0.0
2017-Jun-23 08:00N 49°17' W 123°04'0 0.0
2017-Jun-23 07:30N 49°17' W 123°04'0 0.0
2017-Jun-23 07:00N 49°17' W 123°04'0 0.0
2017-Jun-23 06:30N 49°17' W 123°04'0 0.0
2017-Jun-23 06:00N 49°17' W 123°04'0 0.0
2017-Jun-23 05:30N 49°17' W 123°04'0 0.0
2017-Jun-23 05:00N 49°17' W 123°04'0 0.0
2017-Jun-23 04:30N 49°17' W 123°04'0 0.0
2017-Jun-23 04:00N 49°17' W 123°04'0 0.0
2017-Jun-23 03:30N 49°17' W 123°04'0 0.0
2017-Jun-23 03:00N 49°17' W 123°04'0 0.0
2017-Jun-23 02:30N 49°17' W 123°04'0 0.0
2017-Jun-23 02:00N 49°17' W 123°04'0 0.0
2017-Jun-23 01:30N 49°17' W 123°04'0 0.0
2017-Jun-23 01:00N 49°17' W 123°04'0 0.0
2017-Jun-23 00:30N 49°17' W 123°04'0 0.0
2017-Jun-23 00:00N 49°17' W 123°04'0 0.0
2017-Jun-22 23:30N 49°17' W 123°04'0 0.0
2017-Jun-22 23:00N 49°17' W 123°04'0 0.0
2017-Jun-22 22:30N 49°17' W 123°04'0 0.0
2017-Jun-22 22:00N 49°17' W 123°04'0 0.0
2017-Jun-22 21:30N 49°17' W 123°04'0 0.0
2017-Jun-22 21:00N 49°17' W 123°04'0 0.0
2017-Jun-22 20:30N 49°17' W 123°04'0 0.0
2017-Jun-22 20:00N 49°17' W 123°04'0 0.0
2017-Jun-22 19:31N 49°17' W 123°04'2 4.5
2017-Jun-22 19:00N 49°18' W 123°07'0 0.0
2017-Jun-22 18:30N 49°18' W 123°07'1 1.5
2017-Jun-22 18:00N 49°18' W 123°06'1 3.0
2017-Jun-22 17:30N 49°17' W 123°04'0 0.0
2017-Jun-22 17:00N 49°17' W 123°04'0 0.0
2017-Jun-22 16:30N 49°17' W 123°04'0 0.0
2017-Jun-22 16:00N 49°17' W 123°04'0 0.0
2017-Jun-22 15:30N 49°17' W 123°04'0 0.0
2017-Jun-22 15:00N 49°17' W 123°04'0 0.0
2017-Jun-22 14:00N 49°17' W 123°04'0 0.0
2017-Jun-22 13:30N 49°17' W 123°04'0 0.0
2017-Jun-22 13:00N 49°17' W 123°04'0 0.0
2017-Jun-22 12:30N 49°17' W 123°04'0 0.0
2017-Jun-22 12:00N 49°17' W 123°04'0 0.0
2017-Jun-22 11:30N 49°17' W 123°04'0 0.0
2017-Jun-22 11:00N 49°17' W 123°04'0 0.0
2017-Jun-22 10:30N 49°17' W 123°04'0 0.0
2017-Jun-22 10:00N 49°17' W 123°04'0 0.0
2017-Jun-22 09:30N 49°17' W 123°04'0 0.0
2017-Jun-22 09:00N 49°17' W 123°04'0 0.0
2017-Jun-22 08:30N 49°17' W 123°04'0 0.0
2017-Jun-22 08:00N 49°17' W 123°04'0 0.0
2017-Jun-22 07:30N 49°17' W 123°04'0 0.0
2017-Jun-22 07:00N 49°17' W 123°04'0 0.0
2017-Jun-22 06:30N 49°17' W 123°04'0 0.0
2017-Jun-22 06:00N 49°17' W 123°04'0 0.0
2017-Jun-22 05:30N 49°17' W 123°04'0 0.0
2017-Jun-22 05:00N 49°17' W 123°04'0 0.0
2017-Jun-22 04:31N 49°17' W 123°04'0 0.0
2017-Jun-22 04:00N 49°17' W 123°04'0 0.0
2017-Jun-22 03:30N 49°17' W 123°04'0 0.0
2017-Jun-22 03:00N 49°17' W 123°04'0 0.0
2017-Jun-22 02:30N 49°17' W 123°04'0 0.0
2017-Jun-22 02:00N 49°17' W 123°04'0 0.0
2017-Jun-22 01:30N 49°17' W 123°04'0 0.0
2017-Jun-22 01:00N 49°17' W 123°04'0 0.0
2017-Jun-22 00:30N 49°17' W 123°04'0 0.0
2017-Jun-22 00:00N 49°17' W 123°04'0 0.0
2017-Jun-21 23:30N 49°17' W 123°04'1 2.0
2017-Jun-21 23:00N 49°18' W 123°02'1 1.2
2017-Jun-21 22:30N 49°18' W 123°03'1 2.2
2017-Jun-21 22:01N 49°18' W 123°05'0 0.5
2017-Jun-21 21:30N 49°18' W 123°04'1 1.0
2017-Jun-21 21:00N 49°18' W 123°05'4 7.9
2017-Jun-21 20:30N 49°19' W 123°11'4 8.9
2017-Jun-21 20:00N 49°20' W 123°17'5 9.2
2017-Jun-21 19:30N 49°25' W 123°18'5 9.7
2017-Jun-21 19:00N 49°26' W 123°25'4 8.3
2017-Jun-21 18:30N 49°30' W 123°28'2 3.0
2017-Jun-21 17:56N 49°31' W 123°29'0 0.1
2017-Jun-21 17:30N 49°31' W 123°29'4 7.9
2017-Jun-21 16:59N 49°27' W 123°28'4 7.9
2017-Jun-21 16:30N 49°26' W 123°22'4 7.4
2017-Jun-21 16:00N 49°23' W 123°18'4 8.5
2017-Jun-21 15:30N 49°20' W 123°14'510.5
2017-Jun-21 15:00N 49°18' W 123°07'2 4.1
2017-Jun-21 14:30N 49°17' W 123°04'0 0.0
2017-Jun-21 13:30N 49°17' W 123°04'0 0.0
2017-Jun-21 13:00N 49°17' W 123°04'0 0.0
2017-Jun-21 12:30N 49°17' W 123°04'0 0.0
2017-Jun-21 12:00N 49°17' W 123°04'0 0.0
2017-Jun-21 11:30N 49°17' W 123°04'0 0.0
2017-Jun-21 11:00N 49°17' W 123°04'0 0.0
2017-Jun-21 10:30N 49°17' W 123°04'0 0.0
2017-Jun-21 10:00N 49°17' W 123°04'0 0.0
2017-Jun-21 09:30N 49°17' W 123°04'0 0.0
2017-Jun-21 09:00N 49°17' W 123°04'0 0.0
2017-Jun-21 08:30N 49°17' W 123°04'0 0.0
2017-Jun-21 08:00N 49°17' W 123°04'0 0.0
2017-Jun-21 07:30N 49°17' W 123°04'1 1.3
2017-Jun-21 07:00N 49°18' W 123°05'5 9.1
2017-Jun-21 06:30N 49°19' W 123°11'4 8.4
2017-Jun-21 06:00N 49°20' W 123°17'5 9.2
2017-Jun-21 05:28N 49°25' W 123°17'5 1.3
2017-Jun-21 01:23N 49°30' W 123°16'411.0
2017-Jun-21 01:00N 49°26' W 123°17'510.6
2017-Jun-21 00:30N 49°21' W 123°18'5 9.2
2017-Jun-21 00:00N 49°19' W 123°11'4 8.9
2017-Jun-20 23:30N 49°18' W 123°05'1 1.7
2017-Jun-20 23:00N 49°17' W 123°04'0 0.0
2017-Jun-20 22:30N 49°17' W 123°04'0 0.0
2017-Jun-20 22:00N 49°17' W 123°04'0 0.0
2017-Jun-20 21:30N 49°17' W 123°04'0 0.0
2017-Jun-20 21:00N 49°17' W 123°04'0 0.0
2017-Jun-20 20:30N 49°17' W 123°04'0 0.0
2017-Jun-20 20:00N 49°17' W 123°04'0 0.0
2017-Jun-20 19:30N 49°17' W 123°04'0 0.0
2017-Jun-20 19:00N 49°17' W 123°04'0 0.0
2017-Jun-20 18:30N 49°17' W 123°04'0 0.0
2017-Jun-20 18:00N 49°17' W 123°04'0 0.0
2017-Jun-20 17:30N 49°17' W 123°04'0 0.0
2017-Jun-20 17:00N 49°17' W 123°04'0 0.0
2017-Jun-20 16:30N 49°17' W 123°04'0 0.0
2017-Jun-20 16:00N 49°17' W 123°04'0 0.0
2017-Jun-20 15:30N 49°17' W 123°04'0 0.0
2017-Jun-20 15:00N 49°17' W 123°04'0 0.0
2017-Jun-20 14:30N 49°17' W 123°04'0 0.0
2017-Jun-20 13:30N 49°17' W 123°04'1 2.7
2017-Jun-20 13:00N 49°17' W 123°06'0 0.3
2017-Jun-20 12:30N 49°17' W 123°06'2 3.3
2017-Jun-20 12:00N 49°19' W 123°08'3 5.8
2017-Jun-20 11:30N 49°17' W 123°04'0 0.0
2017-Jun-20 11:00N 49°17' W 123°04'0 0.0
2017-Jun-20 10:30N 49°17' W 123°04'0 0.0
2017-Jun-20 10:00N 49°17' W 123°04'0 0.0
2017-Jun-20 09:30N 49°17' W 123°04'0 0.0
2017-Jun-20 09:00N 49°17' W 123°04'0 0.0
2017-Jun-20 08:30N 49°17' W 123°04'0 0.0
2017-Jun-20 08:00N 49°17' W 123°04'0 0.0
2017-Jun-20 07:30N 49°17' W 123°04'0 0.0
2017-Jun-20 07:00N 49°17' W 123°04'0 0.0
2017-Jun-20 06:30N 49°17' W 123°04'0 0.0
2017-Jun-20 06:00N 49°17' W 123°04'0 0.0
2017-Jun-20 05:30N 49°17' W 123°04'0 0.0
2017-Jun-20 05:00N 49°17' W 123°04'0 0.0
2017-Jun-20 04:30N 49°17' W 123°04'0 0.0
2017-Jun-20 04:00N 49°17' W 123°04'0 0.0
2017-Jun-20 03:30N 49°17' W 123°04'1 1.8
2017-Jun-20 03:00N 49°18' W 123°02'0 0.6
2017-Jun-20 02:30N 49°18' W 123°03'1 1.5
2017-Jun-20 02:00N 49°18' W 123°04'0 0.4
2017-Jun-20 01:30N 49°17' W 123°04'0 0.0
2017-Jun-20 01:00N 49°17' W 123°04'0 0.0
2017-Jun-20 00:30N 49°17' W 123°04'0 0.0
2017-Jun-20 00:00N 49°17' W 123°04'0 0.0
2017-Jun-19 23:30N 49°17' W 123°04'0 0.0
2017-Jun-19 23:00N 49°17' W 123°04'0 0.0
2017-Jun-19 22:30N 49°17' W 123°04'0 0.0
2017-Jun-19 22:00N 49°17' W 123°04'0 0.0
2017-Jun-19 21:30N 49°17' W 123°04'0 0.0
2017-Jun-19 21:00N 49°17' W 123°04'0 0.0
2017-Jun-19 20:30N 49°17' W 123°04'0 0.0
2017-Jun-19 20:00N 49°17' W 123°04'0 0.0
2017-Jun-19 19:30N 49°17' W 123°04'0 0.0
2017-Jun-19 19:00N 49°17' W 123°04'0 0.0
2017-Jun-19 18:30N 49°17' W 123°04'0 0.0
2017-Jun-19 18:00N 49°17' W 123°04'0 0.0
2017-Jun-19 17:30N 49°17' W 123°04'0 0.0
2017-Jun-19 17:00N 49°17' W 123°04'0 0.0
2017-Jun-19 16:30N 49°17' W 123°04'0 0.0
2017-Jun-19 16:00N 49°17' W 123°04'0 0.0
2017-Jun-19 15:30N 49°17' W 123°04'0 0.0
2017-Jun-19 15:00N 49°17' W 123°04'0 0.0
2017-Jun-19 14:30N 49°17' W 123°04'0 0.0
2017-Jun-19 13:30N 49°17' W 123°04'0 0.0
2017-Jun-19 13:00N 49°17' W 123°04'0 0.0
2017-Jun-19 12:30N 49°17' W 123°04'0 0.0
2017-Jun-19 12:00N 49°17' W 123°04'0 0.0
2017-Jun-19 11:30N 49°17' W 123°04'0 0.0
2017-Jun-19 11:00N 49°17' W 123°04'0 0.0
2017-Jun-19 10:30N 49°17' W 123°04'1 2.2
2017-Jun-19 10:00N 49°18' W 123°02'0 0.5
2017-Jun-19 09:30N 49°18' W 123°02'1 2.9
2017-Jun-19 09:00N 49°18' W 123°05'1 1.4
2017-Jun-19 08:30N 49°17' W 123°04'0 0.0
2017-Jun-19 08:00N 49°17' W 123°04'0 0.0
2017-Jun-19 07:30N 49°17' W 123°04'0 0.0
2017-Jun-19 07:00N 49°17' W 123°04'0 0.0
2017-Jun-19 06:30N 49°17' W 123°04'0 0.0
2017-Jun-19 06:00N 49°17' W 123°04'0 0.0
2017-Jun-19 05:30N 49°17' W 123°04'0 0.0
2017-Jun-19 05:00N 49°17' W 123°04'0 0.0
2017-Jun-19 04:30N 49°17' W 123°04'0 0.0
2017-Jun-19 04:00N 49°17' W 123°04'0 0.0
2017-Jun-19 03:30N 49°17' W 123°04'0 0.0
2017-Jun-19 03:00N 49°17' W 123°04'0 0.0
2017-Jun-19 02:30N 49°17' W 123°04'0 0.0
2017-Jun-19 02:00N 49°17' W 123°04'0 0.0
2017-Jun-19 01:30N 49°17' W 123°04'0 0.0
2017-Jun-19 01:00N 49°17' W 123°04'0 0.0
2017-Jun-19 00:30N 49°17' W 123°04'0 0.0
2017-Jun-19 00:00N 49°17' W 123°04'0 0.0
2017-Jun-18 23:30N 49°17' W 123°04'0 0.0
2017-Jun-18 23:00N 49°17' W 123°04'0 0.0
2017-Jun-18 22:30N 49°17' W 123°04'0 0.0
2017-Jun-18 22:00N 49°17' W 123°04'0 0.0
2017-Jun-18 21:30N 49°17' W 123°04'0 0.0
2017-Jun-18 21:00N 49°17' W 123°04'0 0.0
2017-Jun-18 20:30N 49°17' W 123°04'1 1.5
2017-Jun-18 20:00N 49°18' W 123°03'3 5.6
2017-Jun-18 19:30N 49°18' W 122°58'1 1.2
2017-Jun-18 19:00N 49°18' W 122°57'2 3.8
2017-Jun-18 18:30N 49°18' W 122°55'2 3.1
2017-Jun-18 18:00N 49°18' W 122°52'0 0.3
2017-Jun-18 17:30N 49°17' W 122°52'4 7.5
2017-Jun-18 17:00N 49°18' W 122°58'4 7.7
2017-Jun-18 16:30N 49°17' W 123°04'0 0.0
2017-Jun-18 16:01N 49°17' W 123°04'0 0.0
2017-Jun-18 15:30N 49°17' W 123°04'0 0.0
2017-Jun-18 15:00N 49°17' W 123°04'1 1.4
2017-Jun-18 14:00N 49°17' W 123°06'1 1.5
2017-Jun-18 13:30N 49°18' W 123°06'2 3.7
2017-Jun-18 13:01N 49°17' W 123°04'0 0.0
2017-Jun-18 12:30N 49°17' W 123°04'0 0.0
2017-Jun-18 12:01N 49°17' W 123°04'0 0.0
2017-Jun-18 11:30N 49°17' W 123°04'0 0.0
2017-Jun-18 11:01N 49°17' W 123°04'0 0.0
2017-Jun-18 10:31N 49°17' W 123°04'0 0.0
2017-Jun-18 10:00N 49°17' W 123°04'0 0.0
2017-Jun-18 09:31N 49°17' W 123°04'0 0.0
2017-Jun-18 09:00N 49°17' W 123°04'0 0.0
2017-Jun-18 08:31N 49°17' W 123°04'0 0.0
2017-Jun-18 08:00N 49°17' W 123°04'0 0.0
2017-Jun-18 07:30N 49°17' W 123°04'0 0.0
2017-Jun-18 07:01N 49°17' W 123°04'0 0.0
2017-Jun-18 06:30N 49°17' W 123°04'0 0.0
2017-Jun-18 06:01N 49°17' W 123°04'0 0.0
2017-Jun-18 05:30N 49°17' W 123°04'0 0.0
2017-Jun-18 05:01N 49°17' W 123°04'0 0.0
2017-Jun-18 04:31N 49°17' W 123°04'0 0.0
2017-Jun-18 04:00N 49°17' W 123°04'0 0.0
2017-Jun-18 03:30N 49°17' W 123°04'0 0.0
2017-Jun-18 03:00N 49°17' W 123°04'0 0.0
2017-Jun-18 02:31N 49°17' W 123°04'0 0.0
2017-Jun-18 02:00N 49°17' W 123°04'0 0.0
2017-Jun-18 01:30N 49°17' W 123°04'0 0.0
2017-Jun-18 01:00N 49°17' W 123°04'0 0.0
2017-Jun-18 00:31N 49°17' W 123°04'0 0.0
2017-Jun-18 00:00N 49°17' W 123°04'0 0.0
2017-Jun-17 23:30N 49°17' W 123°04'0 0.0
2017-Jun-17 23:00N 49°17' W 123°04'0 0.0
2017-Jun-17 22:31N 49°17' W 123°04'0 0.0
2017-Jun-17 22:00N 49°17' W 123°04'0 0.0
2017-Jun-17 21:31N 49°17' W 123°04'0 0.0
2017-Jun-17 21:01N 49°17' W 123°04'0 0.0
2017-Jun-17 20:31N 49°17' W 123°04'0 0.0
2017-Jun-17 20:00N 49°17' W 123°04'0 0.0
2017-Jun-17 19:30N 49°17' W 123°04'0 0.0
2017-Jun-17 19:00N 49°17' W 123°04'0 0.0
2017-Jun-17 18:30N 49°17' W 123°04'0 0.0
2017-Jun-17 18:01N 49°17' W 123°04'0 0.0
2017-Jun-17 17:30N 49°17' W 123°04'0 0.0
2017-Jun-17 17:00N 49°17' W 123°04'0 0.0
2017-Jun-17 16:31N 49°17' W 123°04'0 0.0
2017-Jun-17 16:01N 49°17' W 123°04'0 0.0
2017-Jun-17 15:30N 49°17' W 123°04'0 0.0
2017-Jun-17 15:00N 49°17' W 123°04'0 0.0
2017-Jun-17 14:30N 49°17' W 123°04'0 0.0
2017-Jun-17 13:31N 49°17' W 123°04'0 0.0
2017-Jun-17 13:00N 49°17' W 123°04'0 0.0
2017-Jun-17 12:30N 49°17' W 123°04'0 0.0
2017-Jun-17 12:01N 49°17' W 123°04'0 0.0
2017-Jun-17 11:31N 49°17' W 123°04'0 0.0
2017-Jun-17 11:00N 49°17' W 123°04'0 0.0
2017-Jun-17 10:30N 49°17' W 123°04'0 0.0
2017-Jun-17 10:00N 49°17' W 123°04'0 0.0
2017-Jun-17 09:30N 49°17' W 123°04'0 0.0
2017-Jun-17 09:00N 49°17' W 123°04'0 0.0
2017-Jun-17 08:30N 49°17' W 123°04'0 0.0
2017-Jun-17 08:00N 49°17' W 123°04'0 0.0
2017-Jun-17 07:31N 49°17' W 123°04'0 0.0
2017-Jun-17 07:00N 49°17' W 123°04'0 0.0
2017-Jun-17 06:31N 49°17' W 123°04'0 0.0
2017-Jun-17 06:00N 49°17' W 123°04'0 0.0
2017-Jun-17 05:30N 49°17' W 123°04'0 0.0
2017-Jun-17 05:00N 49°17' W 123°04'0 0.0
2017-Jun-17 04:30N 49°17' W 123°04'0 0.0
2017-Jun-17 04:01N 49°17' W 123°04'0 0.0
2017-Jun-17 03:31N 49°17' W 123°04'0 0.0
2017-Jun-17 03:00N 49°17' W 123°04'0 0.0
2017-Jun-17 02:30N 49°17' W 123°04'0 0.0
2017-Jun-17 02:00N 49°17' W 123°04'0 0.0
2017-Jun-17 01:30N 49°17' W 123°04'0 0.0
2017-Jun-17 01:00N 49°17' W 123°04'0 0.0
2017-Jun-17 00:30N 49°17' W 123°04'0 0.0
2017-Jun-17 00:00N 49°17' W 123°04'1 1.0
2017-Jun-16 23:30N 49°17' W 123°04'0 0.4
2017-Jun-16 23:00N 49°17' W 123°05'0 1.0
2017-Jun-16 22:30N 49°18' W 123°05'1 1.1
2017-Jun-16 22:00N 49°18' W 123°04'0 0.4
2017-Jun-16 21:31N 49°17' W 123°04'0 0.0
2017-Jun-16 21:01N 49°17' W 123°04'0 0.0
2017-Jun-16 20:30N 49°17' W 123°04'0 0.0
2017-Jun-16 20:01N 49°17' W 123°04'0 0.0
2017-Jun-16 19:30N 49°17' W 123°04'0 0.0
2017-Jun-16 19:01N 49°17' W 123°04'0 0.0
2017-Jun-16 18:30N 49°17' W 123°04'  
Track history (hours):
 
Tides and Currents Weather Stations Pressure Air Temp Water Temp Dewpoint Dewpoint Depression Visibility Wind Speed Wind Dir Waves Ship Positions

Sst Orleans

Last reported at 2017-Jun-26 18:30 UTC. Time now 2017-Jun-26 18:55 UTC.
Position N 49°17' W 123°04'.

Length 29 m; draft 5.1 m.

Type: . MMSI: 316012721.

Date/timePositionNaut miles runAvg speedWind from/ knotsBaromVisibWave heightAir tempDewpointWater temp
2017-Jun-26 18:30N 49°17' W 123°04'0 0.0
2017-Jun-26 18:00N 49°17' W 123°04'0 0.0
2017-Jun-26 17:30N 49°17' W 123°04'0 0.0
2017-Jun-26 17:00N 49°17' W 123°04'0 0.0
2017-Jun-26 16:30N 49°17' W 123°04'0 0.0
2017-Jun-26 16:00N 49°17' W 123°04'0 0.0
2017-Jun-26 15:30N 49°17' W 123°04'2 5.0
2017-Jun-26 15:01N 49°18' W 123°07'0 0.2
2017-Jun-26 14:00N 49°18' W 123°07'0 0.0
2017-Jun-26 13:30N 49°18' W 123°07'0 0.0
2017-Jun-26 13:00N 49°18' W 123°07'0 0.0
2017-Jun-26 12:30N 49°18' W 123°07'0 0.0
2017-Jun-26 12:00N 49°18' W 123°07'0 0.0
2017-Jun-26 11:30N 49°18' W 123°07'2 4.6
2017-Jun-26 11:00N 49°18' W 123°04'0 0.2
2017-Jun-26 10:30N 49°17' W 123°04'0 0.0
2017-Jun-26 10:00N 49°17' W 123°04'0 0.0
2017-Jun-26 09:30N 49°17' W 123°04'0 0.0
2017-Jun-26 09:00N 49°17' W 123°04'0 0.0
2017-Jun-26 08:30N 49°17' W 123°04'0 0.0
2017-Jun-26 08:00N 49°17' W 123°04'0 0.0
2017-Jun-26 07:30N 49°17' W 123°04'0 0.0
2017-Jun-26 07:00N 49°17' W 123°04'0 0.0
2017-Jun-26 06:30N 49°17' W 123°04'0 0.0
2017-Jun-26 06:00N 49°17' W 123°04'0 0.0
2017-Jun-26 05:30N 49°17' W 123°04'2 4.1
2017-Jun-26 05:00N 49°18' W 123°06'611.0
2017-Jun-26 04:30N 49°18' W 123°15'611.3
2017-Jun-26 04:00N 49°13' W 123°19'712.3
2017-Jun-26 03:28N 49°06' W 123°20'612.2
2017-Jun-26 03:00N 49°01' W 123°20'910.2
2017-Jun-26 02:07N 48°52' W 123°21'111.5
2017-Jun-26 01:59N 48°50' W 123°21'612.4
2017-Jun-26 01:30N 48°45' W 123°18'713.3
2017-Jun-26 01:01N 48°38' W 123°15'612.8
2017-Jun-26 00:30N 48°32' W 123°13'510.6
2017-Jun-26 00:00N 48°26' W 123°13'713.1
2017-Jun-25 23:30N 48°22' W 123°20'611.8
2017-Jun-25 23:00N 48°19' W 123°28'4 8.3
2017-Jun-25 22:30N 48°22' W 123°24'4 7.0
2017-Jun-25 22:00N 48°23' W 123°19'3 5.8
2017-Jun-25 21:31N 48°24' W 123°15'2 4.4
2017-Jun-25 21:00N 48°25' W 123°12'4 7.7
2017-Jun-25 20:30N 48°29' W 123°12'611.3
2017-Jun-25 20:00N 48°35' W 123°13'511.0
2017-Jun-25 19:30N 48°40' W 123°15'5 9.3
2017-Jun-25 19:00N 48°44' W 123°11'510.5
2017-Jun-25 18:30N 48°46' W 123°03'4 7.7
2017-Jun-25 17:59N 48°50' W 123°02'4 7.7
2017-Jun-25 17:30N 48°52' W 123°06'611.4
2017-Jun-25 17:00N 48°56' W 123°13'612.1
2017-Jun-25 16:29N 49°00' W 123°20'611.8
2017-Jun-25 16:00N 49°05' W 123°24'611.9
2017-Jun-25 15:29N 49°11' W 123°20'611.6
2017-Jun-25 15:00N 49°16' W 123°18'8 7.9
2017-Jun-25 14:00N 49°18' W 123°06'3 6.6
2017-Jun-25 13:30N 49°18' W 123°01'2 3.6
2017-Jun-25 13:00N 49°18' W 122°58'0 0.5
2017-Jun-25 12:30N 49°18' W 122°58'0 0.1
2017-Jun-25 12:00N 49°18' W 122°58'4 7.4
2017-Jun-25 11:30N 49°18' W 123°04'0 0.2
2017-Jun-25 11:00N 49°17' W 123°04'0 0.0
2017-Jun-25 10:30N 49°17' W 123°04'0 0.0
2017-Jun-25 10:00N 49°17' W 123°04'0 0.0
2017-Jun-25 09:31N 49°17' W 123°04'1 2.7
2017-Jun-25 09:00N 49°17' W 123°06'0 0.6
2017-Jun-25 08:31N 49°17' W 123°05'5 9.7
2017-Jun-25 08:00N 49°18' W 122°58'2 4.7
2017-Jun-25 07:29N 49°18' W 122°54'0 0.4
2017-Jun-25 07:00N 49°17' W 122°54'3 6.4
2017-Jun-25 06:29N 49°18' W 122°59'3 6.4
2017-Jun-25 06:00N 49°17' W 123°04'0 0.0
2017-Jun-25 05:30N 49°17' W 123°04'0 0.0
2017-Jun-25 05:00N 49°17' W 123°04'0 0.0
2017-Jun-25 04:30N 49°17' W 123°04'0 0.0
2017-Jun-25 04:00N 49°17' W 123°04'0 0.0
2017-Jun-25 03:30N 49°17' W 123°04'0 0.0
2017-Jun-25 03:00N 49°17' W 123°04'0 0.0
2017-Jun-25 02:30N 49°17' W 123°04'0 0.0
2017-Jun-25 02:00N 49°17' W 123°04'0 0.0
2017-Jun-25 01:30N 49°17' W 123°04'0 0.0
2017-Jun-25 01:00N 49°17' W 123°04'0 0.0
2017-Jun-25 00:30N 49°17' W 123°04'0 0.0
2017-Jun-25 00:00N 49°17' W 123°04'0 0.0
2017-Jun-24 23:30N 49°17' W 123°04'0 0.0
2017-Jun-24 23:00N 49°17' W 123°04'0 0.0
2017-Jun-24 22:30N 49°17' W 123°04'0 0.0
2017-Jun-24 22:00N 49°17' W 123°04'0 0.0
2017-Jun-24 21:30N 49°17' W 123°04'0 0.0
2017-Jun-24 21:00N 49°17' W 123°04'0 0.0
2017-Jun-24 20:30N 49°17' W 123°04'0 0.0
2017-Jun-24 20:00N 49°17' W 123°04'0 0.0
2017-Jun-24 19:30N 49°17' W 123°04'0 0.0
2017-Jun-24 19:00N 49°17' W 123°04'0 0.0
2017-Jun-24 18:30N 49°17' W 123°04'0 0.0
2017-Jun-24 18:00N 49°17' W 123°04'0 0.0
2017-Jun-24 17:30N 49°17' W 123°04'0 0.0
2017-Jun-24 17:00N 49°17' W 123°04'0 0.0
2017-Jun-24 16:30N 49°17' W 123°04'0 0.0
2017-Jun-24 16:00N 49°17' W 123°04'0 0.0
2017-Jun-24 15:30N 49°17' W 123°04'0 0.0
2017-Jun-24 15:00N 49°17' W 123°04'0 0.0
2017-Jun-24 14:00N 49°17' W 123°04'0 0.0
2017-Jun-24 13:30N 49°17' W 123°04'0 0.0
2017-Jun-24 13:00N 49°17' W 123°04'0 0.0
2017-Jun-24 12:30N 49°17' W 123°04'0 0.0
2017-Jun-24 12:00N 49°17' W 123°04'0 0.0
2017-Jun-24 11:30N 49°17' W 123°04'0 0.0
2017-Jun-24 11:00N 49°17' W 123°04'0 0.0
2017-Jun-24 10:30N 49°17' W 123°04'0 0.0
2017-Jun-24 10:00N 49°17' W 123°04'0 0.0
2017-Jun-24 09:30N 49°17' W 123°04'0 0.0
2017-Jun-24 09:00N 49°17' W 123°04'0 0.0
2017-Jun-24 08:30N 49°17' W 123°04'0 0.0
2017-Jun-24 08:00N 49°17' W 123°04'0 0.0
2017-Jun-24 07:30N 49°17' W 123°04'0 0.0
2017-Jun-24 07:00N 49°17' W 123°04'0 0.0
2017-Jun-24 06:30N 49°17' W 123°04'0 0.0
2017-Jun-24 06:00N 49°17' W 123°04'0 0.0
2017-Jun-24 05:30N 49°17' W 123°04'0 0.0
2017-Jun-24 05:00N 49°17' W 123°04'0 0.0
2017-Jun-24 04:30N 49°17' W 123°04'0 0.0
2017-Jun-24 04:00N 49°17' W 123°04'0 0.0
2017-Jun-24 03:30N 49°17' W 123°04'0 0.0
2017-Jun-24 03:00N 49°17' W 123°04'0 0.0
2017-Jun-24 02:30N 49°17' W 123°04'0 0.0
2017-Jun-24 02:00N 49°17' W 123°04'0 0.0
2017-Jun-24 01:30N 49°17' W 123°04'0 0.0
2017-Jun-24 01:00N 49°17' W 123°04'0 0.0
2017-Jun-24 00:30N 49°17' W 123°04'0 0.0
2017-Jun-24 00:00N 49°17' W 123°04'0 0.0
2017-Jun-23 23:30N 49°17' W 123°04'0 0.0
2017-Jun-23 23:00N 49°17' W 123°04'0 0.0
2017-Jun-23 22:30N 49°17' W 123°04'0 0.0
2017-Jun-23 22:00N 49°17' W 123°04'0 0.0
2017-Jun-23 21:30N 49°17' W 123°04'0 0.0
2017-Jun-23 21:00N 49°17' W 123°04'0 0.0
2017-Jun-23 20:30N 49°17' W 123°04'0 0.0
2017-Jun-23 20:00N 49°17' W 123°04'0 0.0
2017-Jun-23 19:30N 49°17' W 123°04'0 0.0
2017-Jun-23 19:00N 49°17' W 123°04'0 0.0
2017-Jun-23 18:30N 49°17' W 123°04'0 0.0
2017-Jun-23 18:00N 49°17' W 123°04'0 0.0
2017-Jun-23 17:30N 49°17' W 123°04'0 0.0
2017-Jun-23 17:00N 49°17' W 123°04'0 0.0
2017-Jun-23 16:30N 49°17' W 123°04'0 0.0
2017-Jun-23 16:00N 49°17' W 123°04'0 0.0
2017-Jun-23 15:30N 49°17' W 123°04'0 0.0
2017-Jun-23 15:00N 49°17' W 123°04'0 0.0
2017-Jun-23 14:00N 49°17' W 123°04'0 0.0
2017-Jun-23 13:30N 49°17' W 123°04'1 2.3
2017-Jun-23 13:00N 49°18' W 123°02'0 0.0
2017-Jun-23 12:30N 49°18' W 123°02'1 2.0
2017-Jun-23 12:00N 49°18' W 123°03'1 1.0
2017-Jun-23 11:30N 49°17' W 123°04'0 0.0
2017-Jun-23 11:00N 49°17' W 123°04'0 0.0
2017-Jun-23 10:30N 49°17' W 123°04'0 0.0
2017-Jun-23 10:00N 49°17' W 123°04'0 0.0
2017-Jun-23 09:30N 49°17' W 123°04'0 0.0
2017-Jun-23 09:00N 49°17' W 123°04'0 0.0
2017-Jun-23 08:30N 49°17' W 123°04'0 0.0
2017-Jun-23 08:00N 49°17' W 123°04'0 0.0
2017-Jun-23 07:30N 49°17' W 123°04'0 0.0
2017-Jun-23 07:00N 49°17' W 123°04'0 0.0
2017-Jun-23 06:30N 49°17' W 123°04'0 0.0
2017-Jun-23 06:00N 49°17' W 123°04'0 0.0
2017-Jun-23 05:30N 49°17' W 123°04'0 0.0
2017-Jun-23 05:00N 49°17' W 123°04'0 0.0
2017-Jun-23 04:30N 49°17' W 123°04'0 0.0
2017-Jun-23 04:00N 49°17' W 123°04'0 0.0
2017-Jun-23 03:30N 49°17' W 123°04'0 0.0
2017-Jun-23 03:00N 49°17' W 123°04'0 0.0
2017-Jun-23 02:30N 49°17' W 123°04'0 0.0
2017-Jun-23 02:00N 49°17' W 123°04'0 0.0
2017-Jun-23 01:30N 49°17' W 123°04'0 0.0
2017-Jun-23 01:00N 49°17' W 123°04'0 0.0
2017-Jun-23 00:30N 49°17' W 123°04'0 0.0
2017-Jun-23 00:00N 49°17' W 123°04'0 0.0
2017-Jun-22 23:30N 49°17' W 123°04'0 0.0
2017-Jun-22 23:00N 49°17' W 123°04'0 0.0
2017-Jun-22 22:30N 49°17' W 123°04'0 0.0
2017-Jun-22 22:00N 49°17' W 123°04'0 0.0
2017-Jun-22 21:30N 49°17' W 123°04'0 0.0
2017-Jun-22 21:00N 49°17' W 123°04'0 0.0
2017-Jun-22 20:30N 49°17' W 123°04'0 0.0
2017-Jun-22 20:00N 49°17' W 123°04'0 0.0
2017-Jun-22 19:31N 49°17' W 123°04'2 4.5
2017-Jun-22 19:00N 49°18' W 123°07'0 0.0
2017-Jun-22 18:30N 49°18' W 123°07'1 1.5
2017-Jun-22 18:00N 49°18' W 123°06'1 3.0
2017-Jun-22 17:30N 49°17' W 123°04'0 0.0
2017-Jun-22 17:00N 49°17' W 123°04'0 0.0
2017-Jun-22 16:30N 49°17' W 123°04'0 0.0
2017-Jun-22 16:00N 49°17' W 123°04'0 0.0
2017-Jun-22 15:30N 49°17' W 123°04'0 0.0
2017-Jun-22 15:00N 49°17' W 123°04'0 0.0
2017-Jun-22 14:00N 49°17' W 123°04'0 0.0
2017-Jun-22 13:30N 49°17' W 123°04'0 0.0
2017-Jun-22 13:00N 49°17' W 123°04'0 0.0
2017-Jun-22 12:30N 49°17' W 123°04'0 0.0
2017-Jun-22 12:00N 49°17' W 123°04'0 0.0
2017-Jun-22 11:30N 49°17' W 123°04'0 0.0
2017-Jun-22 11:00N 49°17' W 123°04'0 0.0
2017-Jun-22 10:30N 49°17' W 123°04'0 0.0
2017-Jun-22 10:00N 49°17' W 123°04'0 0.0
2017-Jun-22 09:30N 49°17' W 123°04'0 0.0
2017-Jun-22 09:00N 49°17' W 123°04'0 0.0
2017-Jun-22 08:30N 49°17' W 123°04'0 0.0
2017-Jun-22 08:00N 49°17' W 123°04'0 0.0
2017-Jun-22 07:30N 49°17' W 123°04'0 0.0
2017-Jun-22 07:00N 49°17' W 123°04'0 0.0
2017-Jun-22 06:30N 49°17' W 123°04'0 0.0
2017-Jun-22 06:00N 49°17' W 123°04'0 0.0
2017-Jun-22 05:30N 49°17' W 123°04'0 0.0
2017-Jun-22 05:00N 49°17' W 123°04'0 0.0
2017-Jun-22 04:31N 49°17' W 123°04'0 0.0
2017-Jun-22 04:00N 49°17' W 123°04'0 0.0
2017-Jun-22 03:30N 49°17' W 123°04'0 0.0
2017-Jun-22 03:00N 49°17' W 123°04'0 0.0
2017-Jun-22 02:30N 49°17' W 123°04'0 0.0
2017-Jun-22 02:00N 49°17' W 123°04'0 0.0
2017-Jun-22 01:30N 49°17' W 123°04'0 0.0
2017-Jun-22 01:00N 49°17' W 123°04'0 0.0
2017-Jun-22 00:30N 49°17' W 123°04'0 0.0
2017-Jun-22 00:00N 49°17' W 123°04'0 0.0
2017-Jun-21 23:30N 49°17' W 123°04'1 2.0
2017-Jun-21 23:00N 49°18' W 123°02'1 1.2
2017-Jun-21 22:30N 49°18' W 123°03'1 2.2
2017-Jun-21 22:01N 49°18' W 123°05'0 0.5
2017-Jun-21 21:30N 49°18' W 123°04'1 1.0
2017-Jun-21 21:00N 49°18' W 123°05'4 7.9
2017-Jun-21 20:30N 49°19' W 123°11'4 8.9
2017-Jun-21 20:00N 49°20' W 123°17'5 9.2
2017-Jun-21 19:30N 49°25' W 123°18'5 9.7
2017-Jun-21 19:00N 49°26' W 123°25'4 8.3
2017-Jun-21 18:30N 49°30' W 123°28'2 3.0
2017-Jun-21 17:56N 49°31' W 123°29'0 0.1
2017-Jun-21 17:30N 49°31' W 123°29'4 7.9
2017-Jun-21 16:59N 49°27' W 123°28'4 7.9
2017-Jun-21 16:30N 49°26' W 123°22'4 7.4
2017-Jun-21 16:00N 49°23' W 123°18'4 8.5
2017-Jun-21 15:30N 49°20' W 123°14'510.5
2017-Jun-21 15:00N 49°18' W 123°07'2 4.1
2017-Jun-21 14:30N 49°17' W 123°04'0 0.0
2017-Jun-21 13:30N 49°17' W 123°04'0 0.0
2017-Jun-21 13:00N 49°17' W 123°04'0 0.0
2017-Jun-21 12:30N 49°17' W 123°04'0 0.0
2017-Jun-21 12:00N 49°17' W 123°04'0 0.0
2017-Jun-21 11:30N 49°17' W 123°04'0 0.0
2017-Jun-21 11:00N 49°17' W 123°04'0 0.0
2017-Jun-21 10:30N 49°17' W 123°04'0 0.0
2017-Jun-21 10:00N 49°17' W 123°04'0 0.0
2017-Jun-21 09:30N 49°17' W 123°04'0 0.0
2017-Jun-21 09:00N 49°17' W 123°04'0 0.0
2017-Jun-21 08:30N 49°17' W 123°04'0 0.0
2017-Jun-21 08:00N 49°17' W 123°04'0 0.0
2017-Jun-21 07:30N 49°17' W 123°04'1 1.3
2017-Jun-21 07:00N 49°18' W 123°05'5 9.1
2017-Jun-21 06:30N 49°19' W 123°11'4 8.4
2017-Jun-21 06:00N 49°20' W 123°17'5 9.2
2017-Jun-21 05:28N 49°25' W 123°17'5 1.3
2017-Jun-21 01:23N 49°30' W 123°16'411.0
2017-Jun-21 01:00N 49°26' W 123°17'510.6
2017-Jun-21 00:30N 49°21' W 123°18'5 9.2
2017-Jun-21 00:00N 49°19' W 123°11'4 8.9
2017-Jun-20 23:30N 49°18' W 123°05'1 1.7
2017-Jun-20 23:00N 49°17' W 123°04'0 0.0
2017-Jun-20 22:30N 49°17' W 123°04'0 0.0
2017-Jun-20 22:00N 49°17' W 123°04'0 0.0
2017-Jun-20 21:30N 49°17' W 123°04'0 0.0
2017-Jun-20 21:00N 49°17' W 123°04'0 0.0
2017-Jun-20 20:30N 49°17' W 123°04'0 0.0
2017-Jun-20 20:00N 49°17' W 123°04'0 0.0
2017-Jun-20 19:30N 49°17' W 123°04'0 0.0
2017-Jun-20 19:00N 49°17' W 123°04'0 0.0
2017-Jun-20 18:30N 49°17' W 123°04'0 0.0
2017-Jun-20 18:00N 49°17' W 123°04'0 0.0
2017-Jun-20 17:30N 49°17' W 123°04'0 0.0
2017-Jun-20 17:00N 49°17' W 123°04'0 0.0
2017-Jun-20 16:30N 49°17' W 123°04'0 0.0
2017-Jun-20 16:00N 49°17' W 123°04'0 0.0
2017-Jun-20 15:30N 49°17' W 123°04'0 0.0
2017-Jun-20 15:00N 49°17' W 123°04'0 0.0
2017-Jun-20 14:30N 49°17' W 123°04'0 0.0
2017-Jun-20 13:30N 49°17' W 123°04'1 2.7
2017-Jun-20 13:00N 49°17' W 123°06'0 0.3
2017-Jun-20 12:30N 49°17' W 123°06'2 3.3
2017-Jun-20 12:00N 49°19' W 123°08'3 5.8
2017-Jun-20 11:30N 49°17' W 123°04'0 0.0
2017-Jun-20 11:00N 49°17' W 123°04'0 0.0
2017-Jun-20 10:30N 49°17' W 123°04'0 0.0
2017-Jun-20 10:00N 49°17' W 123°04'0 0.0
2017-Jun-20 09:30N 49°17' W 123°04'0 0.0
2017-Jun-20 09:00N 49°17' W 123°04'0 0.0
2017-Jun-20 08:30N 49°17' W 123°04'0 0.0
2017-Jun-20 08:00N 49°17' W 123°04'0 0.0
2017-Jun-20 07:30N 49°17' W 123°04'0 0.0
2017-Jun-20 07:00N 49°17' W 123°04'0 0.0
2017-Jun-20 06:30N 49°17' W 123°04'0 0.0
2017-Jun-20 06:00N 49°17' W 123°04'0 0.0
2017-Jun-20 05:30N 49°17' W 123°04'0 0.0
2017-Jun-20 05:00N 49°17' W 123°04'0 0.0
2017-Jun-20 04:30N 49°17' W 123°04'0 0.0
2017-Jun-20 04:00N 49°17' W 123°04'0 0.0
2017-Jun-20 03:30N 49°17' W 123°04'1 1.8
2017-Jun-20 03:00N 49°18' W 123°02'0 0.6
2017-Jun-20 02:30N 49°18' W 123°03'1 1.5
2017-Jun-20 02:00N 49°18' W 123°04'0 0.4
2017-Jun-20 01:30N 49°17' W 123°04'0 0.0
2017-Jun-20 01:00N 49°17' W 123°04'0 0.0
2017-Jun-20 00:30N 49°17' W 123°04'0 0.0
2017-Jun-20 00:00N 49°17' W 123°04'0 0.0
2017-Jun-19 23:30N 49°17' W 123°04'0 0.0
2017-Jun-19 23:00N 49°17' W 123°04'0 0.0
2017-Jun-19 22:30N 49°17' W 123°04'0 0.0
2017-Jun-19 22:00N 49°17' W 123°04'0 0.0
2017-Jun-19 21:30N 49°17' W 123°04'0 0.0
2017-Jun-19 21:00N 49°17' W 123°04'0 0.0
2017-Jun-19 20:30N 49°17' W 123°04'0 0.0
2017-Jun-19 20:00N 49°17' W 123°04'0 0.0
2017-Jun-19 19:30N 49°17' W 123°04'0 0.0
2017-Jun-19 19:00N 49°17' W 123°04'0 0.0
2017-Jun-19 18:30N 49°17' W 123°04'0 0.0
2017-Jun-19 18:00N 49°17' W 123°04'0 0.0
2017-Jun-19 17:30N 49°17' W 123°04'0 0.0
2017-Jun-19 17:00N 49°17' W 123°04'0 0.0
2017-Jun-19 16:30N 49°17' W 123°04'0 0.0
2017-Jun-19 16:00N 49°17' W 123°04'0 0.0
2017-Jun-19 15:30N 49°17' W 123°04'0 0.0
2017-Jun-19 15:00N 49°17' W 123°04'0 0.0
2017-Jun-19 14:30N 49°17' W 123°04'0 0.0
2017-Jun-19 13:30N 49°17' W 123°04'0 0.0
2017-Jun-19 13:00N 49°17' W 123°04'0 0.0
2017-Jun-19 12:30N 49°17' W 123°04'0 0.0
2017-Jun-19 12:00N 49°17' W 123°04'0 0.0
2017-Jun-19 11:30N 49°17' W 123°04'0 0.0
2017-Jun-19 11:00N 49°17' W 123°04'0 0.0
2017-Jun-19 10:30N 49°17' W 123°04'1 2.2
2017-Jun-19 10:00N 49°18' W 123°02'0 0.5
2017-Jun-19 09:30N 49°18' W 123°02'1 2.9
2017-Jun-19 09:00N 49°18' W 123°05'1 1.4
2017-Jun-19 08:30N 49°17' W 123°04'0 0.0
2017-Jun-19 08:00N 49°17' W 123°04'0 0.0
2017-Jun-19 07:30N 49°17' W 123°04'0 0.0
2017-Jun-19 07:00N 49°17' W 123°04'0 0.0
2017-Jun-19 06:30N 49°17' W 123°04'0 0.0
2017-Jun-19 06:00N 49°17' W 123°04'0 0.0
2017-Jun-19 05:30N 49°17' W 123°04'0 0.0
2017-Jun-19 05:00N 49°17' W 123°04'0 0.0
2017-Jun-19 04:30N 49°17' W 123°04'0 0.0
2017-Jun-19 04:00N 49°17' W 123°04'0 0.0
2017-Jun-19 03:30N 49°17' W 123°04'0 0.0
2017-Jun-19 03:00N 49°17' W 123°04'0 0.0
2017-Jun-19 02:30N 49°17' W 123°04'0 0.0
2017-Jun-19 02:00N 49°17' W 123°04'0 0.0
2017-Jun-19 01:30N 49°17' W 123°04'0 0.0
2017-Jun-19 01:00N 49°17' W 123°04'0 0.0
2017-Jun-19 00:30N 49°17' W 123°04'0 0.0
2017-Jun-19 00:00N 49°17' W 123°04'0 0.0
2017-Jun-18 23:30N 49°17' W 123°04'0 0.0
2017-Jun-18 23:00N 49°17' W 123°04'0 0.0
2017-Jun-18 22:30N 49°17' W 123°04'0 0.0
2017-Jun-18 22:00N 49°17' W 123°04'0 0.0
2017-Jun-18 21:30N 49°17' W 123°04'0 0.0
2017-Jun-18 21:00N 49°17' W 123°04'0 0.0
2017-Jun-18 20:30N 49°17' W 123°04'1 1.5
2017-Jun-18 20:00N 49°18' W 123°03'3 5.6
2017-Jun-18 19:30N 49°18' W 122°58'1 1.2
2017-Jun-18 19:00N 49°18' W 122°57'2 3.8
2017-Jun-18 18:30N 49°18' W 122°55'2 3.1
2017-Jun-18 18:00N 49°18' W 122°52'0 0.3
2017-Jun-18 17:30N 49°17' W 122°52'4 7.5
2017-Jun-18 17:00N 49°18' W 122°58'4 7.7
2017-Jun-18 16:30N 49°17' W 123°04'0 0.0
2017-Jun-18 16:01N 49°17' W 123°04'0 0.0
2017-Jun-18 15:30N 49°17' W 123°04'0 0.0
2017-Jun-18 15:00N 49°17' W 123°04'1 1.4
2017-Jun-18 14:00N 49°17' W 123°06'1 1.5
2017-Jun-18 13:30N 49°18' W 123°06'2 3.7
2017-Jun-18 13:01N 49°17' W 123°04'0 0.0
2017-Jun-18 12:30N 49°17' W 123°04'0 0.0
2017-Jun-18 12:01N 49°17' W 123°04'0 0.0
2017-Jun-18 11:30N 49°17' W 123°04'0 0.0
2017-Jun-18 11:01N 49°17' W 123°04'0 0.0
2017-Jun-18 10:31N 49°17' W 123°04'0 0.0
2017-Jun-18 10:00N 49°17' W 123°04'0 0.0
2017-Jun-18 09:31N 49°17' W 123°04'0 0.0
2017-Jun-18 09:00N 49°17' W 123°04'0 0.0
2017-Jun-18 08:31N 49°17' W 123°04'0 0.0
2017-Jun-18 08:00N 49°17' W 123°04'0 0.0
2017-Jun-18 07:30N 49°17' W 123°04'0 0.0
2017-Jun-18 07:01N 49°17' W 123°04'0 0.0
2017-Jun-18 06:30N 49°17' W 123°04'0 0.0
2017-Jun-18 06:01N 49°17' W 123°04'0 0.0
2017-Jun-18 05:30N 49°17' W 123°04'0 0.0
2017-Jun-18 05:01N 49°17' W 123°04'0 0.0
2017-Jun-18 04:31N 49°17' W 123°04'0 0.0
2017-Jun-18 04:00N 49°17' W 123°04'0 0.0
2017-Jun-18 03:30N 49°17' W 123°04'0 0.0
2017-Jun-18 03:00N 49°17' W 123°04'0 0.0
2017-Jun-18 02:31N 49°17' W 123°04'0 0.0
2017-Jun-18 02:00N 49°17' W 123°04'0 0.0
2017-Jun-18 01:30N 49°17' W 123°04'0 0.0
2017-Jun-18 01:00N 49°17' W 123°04'0 0.0
2017-Jun-18 00:31N 49°17' W 123°04'0 0.0
2017-Jun-18 00:00N 49°17' W 123°04'0 0.0
2017-Jun-17 23:30N 49°17' W 123°04'0 0.0
2017-Jun-17 23:00N 49°17' W 123°04'0 0.0
2017-Jun-17 22:31N 49°17' W 123°04'0 0.0
2017-Jun-17 22:00N 49°17' W 123°04'0 0.0
2017-Jun-17 21:31N 49°17' W 123°04'0 0.0
2017-Jun-17 21:01N 49°17' W 123°04'0 0.0
2017-Jun-17 20:31N 49°17' W 123°04'0 0.0
2017-Jun-17 20:00N 49°17' W 123°04'0 0.0
2017-Jun-17 19:30N 49°17' W 123°04'0 0.0
2017-Jun-17 19:00N 49°17' W 123°04'0 0.0
2017-Jun-17 18:30N 49°17' W 123°04'0 0.0
2017-Jun-17 18:01N 49°17' W 123°04'0 0.0
2017-Jun-17 17:30N 49°17' W 123°04'0 0.0
2017-Jun-17 17:00N 49°17' W 123°04'0 0.0
2017-Jun-17 16:31N 49°17' W 123°04'0 0.0
2017-Jun-17 16:01N 49°17' W 123°04'0 0.0
2017-Jun-17 15:30N 49°17' W 123°04'0 0.0
2017-Jun-17 15:00N 49°17' W 123°04'0 0.0
2017-Jun-17 14:30N 49°17' W 123°04'0 0.0
2017-Jun-17 13:31N 49°17' W 123°04'0 0.0
2017-Jun-17 13:00N 49°17' W 123°04'0 0.0
2017-Jun-17 12:30N 49°17' W 123°04'0 0.0
2017-Jun-17 12:01N 49°17' W 123°04'0 0.0
2017-Jun-17 11:31N 49°17' W 123°04'0 0.0
2017-Jun-17 11:00N 49°17' W 123°04'0 0.0
2017-Jun-17 10:30N 49°17' W 123°04'0 0.0
2017-Jun-17 10:00N 49°17' W 123°04'0 0.0
2017-Jun-17 09:30N 49°17' W 123°04'0 0.0
2017-Jun-17 09:00N 49°17' W 123°04'0 0.0
2017-Jun-17 08:30N 49°17' W 123°04'0 0.0
2017-Jun-17 08:00N 49°17' W 123°04'0 0.0
2017-Jun-17 07:31N 49°17' W 123°04'0 0.0
2017-Jun-17 07:00N 49°17' W 123°04'0 0.0
2017-Jun-17 06:31N 49°17' W 123°04'0 0.0
2017-Jun-17 06:00N 49°17' W 123°04'0 0.0
2017-Jun-17 05:30N 49°17' W 123°04'0 0.0
2017-Jun-17 05:00N 49°17' W 123°04'0 0.0
2017-Jun-17 04:30N 49°17' W 123°04'0 0.0
2017-Jun-17 04:01N 49°17' W 123°04'0 0.0
2017-Jun-17 03:31N 49°17' W 123°04'0 0.0
2017-Jun-17 03:00N 49°17' W 123°04'0 0.0
2017-Jun-17 02:30N 49°17' W 123°04'0 0.0
2017-Jun-17 02:00N 49°17' W 123°04'0 0.0
2017-Jun-17 01:30N 49°17' W 123°04'0 0.0
2017-Jun-17 01:00N 49°17' W 123°04'0 0.0
2017-Jun-17 00:30N 49°17' W 123°04'0 0.0
2017-Jun-17 00:00N 49°17' W 123°04'1 1.0
2017-Jun-16 23:30N 49°17' W 123°04'0 0.4
2017-Jun-16 23:00N 49°17' W 123°05'0 1.0
2017-Jun-16 22:30N 49°18' W 123°05'1 1.1
2017-Jun-16 22:00N 49°18' W 123°04'0 0.4
2017-Jun-16 21:31N 49°17' W 123°04'0 0.0
2017-Jun-16 21:01N 49°17' W 123°04'0 0.0
2017-Jun-16 20:30N 49°17' W 123°04'0 0.0
2017-Jun-16 20:01N 49°17' W 123°04'0 0.0
2017-Jun-16 19:30N 49°17' W 123°04'0 0.0
2017-Jun-16 19:01N 49°17' W 123°04'0 0.0
2017-Jun-16 18:30N 49°17' W 123°04'  

Dump ship's entire track history